sensor_id;sensor_type;location;lat;lon;timestamp;pressure;altitude;pressure_sealevel;temperature;humidity
37066;BME280;22981;43.080;25.550;2022-08-19T00:01:25;99110.83;;;23.80;52.74
37066;BME280;22981;43.080;25.550;2022-08-19T00:03:53;99110.17;;;23.74;52.81
37066;BME280;22981;43.080;25.550;2022-08-19T00:06:21;99114.70;;;23.67;52.86
37066;BME280;22981;43.080;25.550;2022-08-19T00:08:48;99126.38;;;23.59;53.05
37066;BME280;22981;43.080;25.550;2022-08-19T00:11:17;99128.02;;;23.49;53.33
37066;BME280;22981;43.080;25.550;2022-08-19T00:13:45;99124.16;;;23.50;53.46
37066;BME280;22981;43.080;25.550;2022-08-19T00:16:15;99129.24;;;23.54;53.39
37066;BME280;22981;43.080;25.550;2022-08-19T00:18:45;99128.39;;;23.56;53.34
37066;BME280;22981;43.080;25.550;2022-08-19T00:21:13;99122.36;;;23.57;53.29
37066;BME280;22981;43.080;25.550;2022-08-19T00:23:42;99126.88;;;23.61;53.22
37066;BME280;22981;43.080;25.550;2022-08-19T00:26:11;99125.33;;;23.58;53.23
37066;BME280;22981;43.080;25.550;2022-08-19T00:28:38;99131.69;;;23.44;53.52
37066;BME280;22981;43.080;25.550;2022-08-19T00:31:08;99126.60;;;23.29;53.90
37066;BME280;22981;43.080;25.550;2022-08-19T00:33:36;99123.95;;;23.15;54.31
37066;BME280;22981;43.080;25.550;2022-08-19T00:36:06;99118.00;;;23.13;54.46
37066;BME280;22981;43.080;25.550;2022-08-19T00:38:36;99112.89;;;23.20;54.43
37066;BME280;22981;43.080;25.550;2022-08-19T00:41:06;99112.79;;;23.26;54.28
37066;BME280;22981;43.080;25.550;2022-08-19T00:43:35;99114.58;;;23.30;54.19
37066;BME280;22981;43.080;25.550;2022-08-19T00:46:03;99121.33;;;23.33;54.13
37066;BME280;22981;43.080;25.550;2022-08-19T00:48:32;99116.11;;;23.34;54.15
37066;BME280;22981;43.080;25.550;2022-08-19T00:51:00;99105.74;;;23.33;54.08
37066;BME280;22981;43.080;25.550;2022-08-19T00:53:30;99107.75;;;23.30;54.04
37066;BME280;22981;43.080;25.550;2022-08-19T00:56:01;99101.73;;;23.31;53.95
37066;BME280;22981;43.080;25.550;2022-08-19T00:58:33;99106.20;;;23.27;53.92
37066;BME280;22981;43.080;25.550;2022-08-19T01:01:03;99113.83;;;23.16;54.38
37066;BME280;22981;43.080;25.550;2022-08-19T01:03:31;99108.49;;;22.99;54.92
37066;BME280;22981;43.080;25.550;2022-08-19T01:05:58;99113.03;;;22.93;55.39
37066;BME280;22981;43.080;25.550;2022-08-19T01:08:26;99120.10;;;22.94;55.51
37066;BME280;22981;43.080;25.550;2022-08-19T01:10:56;99116.89;;;22.92;55.62
37066;BME280;22981;43.080;25.550;2022-08-19T01:13:32;99122.27;;;22.94;55.59
37066;BME280;22981;43.080;25.550;2022-08-19T01:16:05;99120.61;;;22.96;55.57
37066;BME280;22981;43.080;25.550;2022-08-19T01:18:29;99122.70;;;22.99;55.55
37066;BME280;22981;43.080;25.550;2022-08-19T01:21:00;99124.58;;;23.01;55.53
37066;BME280;22981;43.080;25.550;2022-08-19T01:23:28;99119.92;;;23.02;55.55
37066;BME280;22981;43.080;25.550;2022-08-19T01:25:57;99126.42;;;23.03;55.54
37066;BME280;22981;43.080;25.550;2022-08-19T01:28:27;99123.50;;;22.99;55.54
37066;BME280;22981;43.080;25.550;2022-08-19T01:30:55;99127.00;;;22.91;55.71
37066;BME280;22981;43.080;25.550;2022-08-19T01:33:22;99125.27;;;22.82;55.96
37066;BME280;22981;43.080;25.550;2022-08-19T01:35:50;99123.10;;;22.81;56.07
37066;BME280;22981;43.080;25.550;2022-08-19T01:38:24;99129.88;;;22.84;56.03
37066;BME280;22981;43.080;25.550;2022-08-19T01:40:52;99127.88;;;22.87;55.99
37066;BME280;22981;43.080;25.550;2022-08-19T01:43:20;99129.19;;;22.89;55.96
37066;BME280;22981;43.080;25.550;2022-08-19T01:45:47;99133.00;;;22.91;55.98
37066;BME280;22981;43.080;25.550;2022-08-19T01:48:15;99132.46;;;22.91;55.96
37066;BME280;22981;43.080;25.550;2022-08-19T01:50:43;99129.75;;;22.89;56.00
37066;BME280;22981;43.080;25.550;2022-08-19T01:53:11;99136.89;;;22.87;56.00
37066;BME280;22981;43.080;25.550;2022-08-19T01:55:41;99148.66;;;22.85;56.08
37066;BME280;22981;43.080;25.550;2022-08-19T01:58:18;99140.52;;;22.71;56.51
37066;BME280;22981;43.080;25.550;2022-08-19T02:00:47;99139.41;;;22.61;56.91
37066;BME280;22981;43.080;25.550;2022-08-19T02:03:15;99144.70;;;22.55;57.10
37066;BME280;22981;43.080;25.550;2022-08-19T02:05:44;99143.41;;;22.53;57.22
37066;BME280;22981;43.080;25.550;2022-08-19T02:08:12;99142.94;;;22.48;57.36
37066;BME280;22981;43.080;25.550;2022-08-19T02:10:42;99147.66;;;22.45;57.51
37066;BME280;22981;43.080;25.550;2022-08-19T02:13:11;99145.53;;;22.42;57.60
37066;BME280;22981;43.080;25.550;2022-08-19T02:15:40;99152.04;;;22.43;57.57
37066;BME280;22981;43.080;25.550;2022-08-19T02:18:08;99152.23;;;22.47;57.46
37066;BME280;22981;43.080;25.550;2022-08-19T02:20:36;99148.71;;;22.46;57.41
37066;BME280;22981;43.080;25.550;2022-08-19T02:23:05;99146.54;;;22.46;57.41
37066;BME280;22981;43.080;25.550;2022-08-19T02:25:33;99149.52;;;22.47;57.34
37066;BME280;22981;43.080;25.550;2022-08-19T02:28:01;99156.05;;;22.48;57.25
37066;BME280;22981;43.080;25.550;2022-08-19T02:30:28;99147.10;;;22.45;57.25
37066;BME280;22981;43.080;25.550;2022-08-19T02:32:56;99157.36;;;22.37;57.48
37066;BME280;22981;43.080;25.550;2022-08-19T02:35:24;99157.03;;;22.28;57.62
37066;BME280;22981;43.080;25.550;2022-08-19T02:37:52;99157.84;;;22.14;57.85
37066;BME280;22981;43.080;25.550;2022-08-19T02:40:37;99162.33;;;22.05;58.04
37066;BME280;22981;43.080;25.550;2022-08-19T02:43:07;99165.05;;;22.05;58.05
37066;BME280;22981;43.080;25.550;2022-08-19T02:45:37;99162.30;;;22.08;57.98
37066;BME280;22981;43.080;25.550;2022-08-19T02:48:05;99165.02;;;22.08;57.94
37066;BME280;22981;43.080;25.550;2022-08-19T02:50:36;99161.17;;;22.09;57.85
37066;BME280;22981;43.080;25.550;2022-08-19T02:53:03;99166.34;;;22.10;57.78
37066;BME280;22981;43.080;25.550;2022-08-19T02:55:30;99164.98;;;22.10;57.78
37066;BME280;22981;43.080;25.550;2022-08-19T02:57:58;99169.59;;;22.10;57.80
37066;BME280;22981;43.080;25.550;2022-08-19T03:00:26;99173.20;;;22.08;57.82
37066;BME280;22981;43.080;25.550;2022-08-19T03:02:54;99179.77;;;22.07;57.88
37066;BME280;22981;43.080;25.550;2022-08-19T03:05:22;99183.30;;;22.07;57.83
37066;BME280;22981;43.080;25.550;2022-08-19T03:07:50;99180.88;;;22.06;57.84
37066;BME280;22981;43.080;25.550;2022-08-19T03:10:18;99188.23;;;22.05;57.84
37066;BME280;22981;43.080;25.550;2022-08-19T03:12:45;99186.93;;;22.03;57.85
37066;BME280;22981;43.080;25.550;2022-08-19T03:15:13;99184.80;;;21.99;57.95
37066;BME280;22981;43.080;25.550;2022-08-19T03:17:41;99183.75;;;21.98;57.96
37066;BME280;22981;43.080;25.550;2022-08-19T03:20:09;99187.28;;;21.98;57.89
37066;BME280;22981;43.080;25.550;2022-08-19T03:22:37;99191.30;;;22.01;57.82
37066;BME280;22981;43.080;25.550;2022-08-19T03:25:05;99196.75;;;22.01;57.72
37066;BME280;22981;43.080;25.550;2022-08-19T03:27:32;99190.77;;;22.02;57.64
37066;BME280;22981;43.080;25.550;2022-08-19T03:30:01;99200.35;;;21.99;57.68
37066;BME280;22981;43.080;25.550;2022-08-19T03:32:29;99200.55;;;21.89;58.01
37066;BME280;22981;43.080;25.550;2022-08-19T03:34:56;99199.01;;;21.83;58.16
37066;BME280;22981;43.080;25.550;2022-08-19T03:37:24;99199.07;;;21.80;58.27
37066;BME280;22981;43.080;25.550;2022-08-19T03:39:52;99211.37;;;21.78;58.36
37066;BME280;22981;43.080;25.550;2022-08-19T03:42:20;99218.98;;;21.78;58.40
37066;BME280;22981;43.080;25.550;2022-08-19T03:44:47;99225.23;;;21.79;58.38
37066;BME280;22981;43.080;25.550;2022-08-19T03:47:15;99224.22;;;21.74;58.48
37066;BME280;22981;43.080;25.550;2022-08-19T03:49:43;99225.86;;;21.75;58.52
37066;BME280;22981;43.080;25.550;2022-08-19T03:52:11;99224.50;;;21.75;58.57
37066;BME280;22981;43.080;25.550;2022-08-19T03:54:38;99229.95;;;21.75;58.63
37066;BME280;22981;43.080;25.550;2022-08-19T03:57:06;99226.23;;;21.69;58.94
37066;BME280;22981;43.080;25.550;2022-08-19T03:59:37;99169.92;;;21.32;59.04
37066;BME280;22981;43.080;25.550;2022-08-19T04:02:07;99234.72;;;21.67;59.20
37066;BME280;22981;43.080;25.550;2022-08-19T04:04:36;99234.50;;;21.64;59.35
37066;BME280;22981;43.080;25.550;2022-08-19T04:07:04;99239.48;;;21.59;59.55
37066;BME280;22981;43.080;25.550;2022-08-19T04:09:34;99241.73;;;21.55;59.65
37066;BME280;22981;43.080;25.550;2022-08-19T04:12:03;99243.93;;;21.53;59.82
37066;BME280;22981;43.080;25.550;2022-08-19T04:14:32;99244.58;;;21.47;60.02
37066;BME280;22981;43.080;25.550;2022-08-19T04:17:01;99248.02;;;21.53;59.97
37066;BME280;22981;43.080;25.550;2022-08-19T04:19:31;99251.18;;;21.60;59.71
37066;BME280;22981;43.080;25.550;2022-08-19T04:21:59;99250.80;;;21.50;59.77
37066;BME280;22981;43.080;25.550;2022-08-19T04:24:27;99250.13;;;21.39;60.09
37066;BME280;22981;43.080;25.550;2022-08-19T04:26:54;99252.27;;;21.42;60.14
37066;BME280;22981;43.080;25.550;2022-08-19T04:29:24;99248.11;;;21.47;60.03
37066;BME280;22981;43.080;25.550;2022-08-19T04:31:54;99250.49;;;21.52;60.00
37066;BME280;22981;43.080;25.550;2022-08-19T04:34:24;99250.71;;;21.55;59.98
37066;BME280;22981;43.080;25.550;2022-08-19T04:36:53;99251.20;;;21.57;59.88
37066;BME280;22981;43.080;25.550;2022-08-19T04:39:24;99250.95;;;21.56;59.95
37066;BME280;22981;43.080;25.550;2022-08-19T04:41:56;99243.25;;;21.61;59.91
37066;BME280;22981;43.080;25.550;2022-08-19T04:44:42;99239.17;;;21.61;60.00
37066;BME280;22981;43.080;25.550;2022-08-19T04:47:10;99242.05;;;21.67;59.94
37066;BME280;22981;43.080;25.550;2022-08-19T04:49:37;99245.80;;;21.71;59.81
37066;BME280;22981;43.080;25.550;2022-08-19T04:52:05;99247.03;;;21.79;59.72
37066;BME280;22981;43.080;25.550;2022-08-19T04:54:33;99249.05;;;21.89;59.44
37066;BME280;22981;43.080;25.550;2022-08-19T04:57:00;99250.00;;;21.96;59.17
37066;BME280;22981;43.080;25.550;2022-08-19T04:59:28;99244.20;;;22.00;59.11
37066;BME280;22981;43.080;25.550;2022-08-19T05:01:55;99246.59;;;22.04;58.91
37066;BME280;22981;43.080;25.550;2022-08-19T05:04:23;99250.86;;;22.10;58.84
37066;BME280;22981;43.080;25.550;2022-08-19T05:06:51;99248.94;;;22.11;58.79
37066;BME280;22981;43.080;25.550;2022-08-19T05:09:20;99254.31;;;22.16;58.73
37066;BME280;22981;43.080;25.550;2022-08-19T05:11:48;99250.65;;;22.23;58.58
37066;BME280;22981;43.080;25.550;2022-08-19T05:14:17;99252.16;;;22.29;58.48
37066;BME280;22981;43.080;25.550;2022-08-19T05:16:46;99249.78;;;22.39;58.23
37066;BME280;22981;43.080;25.550;2022-08-19T05:19:14;99239.84;;;22.45;57.93
37066;BME280;22981;43.080;25.550;2022-08-19T05:22:00;99245.95;;;22.54;57.66
37066;BME280;22981;43.080;25.550;2022-08-19T05:24:46;99237.66;;;22.59;57.59
37066;BME280;22981;43.080;25.550;2022-08-19T05:27:14;99241.04;;;22.67;57.36
37066;BME280;22981;43.080;25.550;2022-08-19T05:29:41;99243.61;;;22.74;57.20
37066;BME280;22981;43.080;25.550;2022-08-19T05:32:09;99243.19;;;22.81;57.06
37066;BME280;22981;43.080;25.550;2022-08-19T05:34:37;99243.02;;;22.89;56.88
37066;BME280;22981;43.080;25.550;2022-08-19T05:37:06;99239.84;;;22.98;56.87
37066;BME280;22981;43.080;25.550;2022-08-19T05:39:36;99241.61;;;23.05;56.71
37066;BME280;22981;43.080;25.550;2022-08-19T05:42:07;99249.64;;;23.13;56.55
37066;BME280;22981;43.080;25.550;2022-08-19T05:44:38;99242.61;;;23.20;56.28
37066;BME280;22981;43.080;25.550;2022-08-19T05:47:06;99243.92;;;23.23;56.15
37066;BME280;22981;43.080;25.550;2022-08-19T05:49:36;99247.98;;;23.26;56.06
37066;BME280;22981;43.080;25.550;2022-08-19T05:52:06;99234.80;;;23.28;56.04
37066;BME280;22981;43.080;25.550;2022-08-19T05:54:36;99243.95;;;23.34;56.09
37066;BME280;22981;43.080;25.550;2022-08-19T05:57:06;99236.99;;;23.39;56.05
37066;BME280;22981;43.080;25.550;2022-08-19T05:59:34;99247.98;;;23.48;56.06
37066;BME280;22981;43.080;25.550;2022-08-19T06:02:04;99243.02;;;23.61;55.81
37066;BME280;22981;43.080;25.550;2022-08-19T06:04:32;99238.44;;;23.70;55.63
37066;BME280;22981;43.080;25.550;2022-08-19T06:07:00;99242.59;;;23.79;55.41
37066;BME280;22981;43.080;25.550;2022-08-19T06:09:28;99244.44;;;23.92;55.37
37066;BME280;22981;43.080;25.550;2022-08-19T06:11:58;99243.72;;;24.09;55.15
37066;BME280;22981;43.080;25.550;2022-08-19T06:14:29;99237.76;;;24.27;54.79
37066;BME280;22981;43.080;25.550;2022-08-19T06:16:57;99237.55;;;24.46;54.38
37066;BME280;22981;43.080;25.550;2022-08-19T06:19:27;99231.95;;;24.60;54.00
37066;BME280;22981;43.080;25.550;2022-08-19T06:21:56;99231.99;;;24.77;53.47
37066;BME280;22981;43.080;25.550;2022-08-19T06:24:26;99230.17;;;24.92;53.18
37066;BME280;22981;43.080;25.550;2022-08-19T06:26:57;99224.48;;;25.09;52.82
37066;BME280;22981;43.080;25.550;2022-08-19T06:29:26;99228.75;;;25.21;52.44
37066;BME280;22981;43.080;25.550;2022-08-19T06:31:56;99231.73;;;25.31;52.22
37066;BME280;22981;43.080;25.550;2022-08-19T06:34:25;99153.24;;;24.91;51.89
37066;BME280;22981;43.080;25.550;2022-08-19T06:36:55;99228.33;;;25.51;51.32
37066;BME280;22981;43.080;25.550;2022-08-19T06:39:29;99233.80;;;25.60;51.08
37066;BME280;22981;43.080;25.550;2022-08-19T06:42:00;99229.60;;;25.71;50.74
37066;BME280;22981;43.080;25.550;2022-08-19T06:44:30;99225.84;;;25.78;50.55
37066;BME280;22981;43.080;25.550;2022-08-19T06:47:00;99228.79;;;25.88;50.45
37066;BME280;22981;43.080;25.550;2022-08-19T06:49:28;99222.78;;;25.94;50.52
37066;BME280;22981;43.080;25.550;2022-08-19T06:51:58;99220.16;;;26.07;50.38
37066;BME280;22981;43.080;25.550;2022-08-19T06:54:26;99218.98;;;26.16;50.34
37066;BME280;22981;43.080;25.550;2022-08-19T06:56:56;99227.75;;;26.25;50.15
37066;BME280;22981;43.080;25.550;2022-08-19T06:59:25;99221.42;;;26.33;50.05
37066;BME280;22981;43.080;25.550;2022-08-19T07:01:55;99215.89;;;26.41;49.83
37066;BME280;22981;43.080;25.550;2022-08-19T07:04:27;99215.31;;;26.51;49.95
37066;BME280;22981;43.080;25.550;2022-08-19T07:07:07;99217.49;;;26.66;49.78
37066;BME280;22981;43.080;25.550;2022-08-19T07:09:36;99212.45;;;26.83;49.44
37066;BME280;22981;43.080;25.550;2022-08-19T07:12:06;99212.77;;;26.96;49.05
37066;BME280;22981;43.080;25.550;2022-08-19T07:14:36;99203.31;;;27.06;48.98
37066;BME280;22981;43.080;25.550;2022-08-19T07:17:06;99204.69;;;27.20;49.00
37066;BME280;22981;43.080;25.550;2022-08-19T07:19:35;99199.13;;;27.35;48.21
37066;BME280;22981;43.080;25.550;2022-08-19T07:22:05;99204.77;;;27.45;48.21
37066;BME280;22981;43.080;25.550;2022-08-19T07:24:33;99195.54;;;27.56;47.80
37066;BME280;22981;43.080;25.550;2022-08-19T07:27:02;99203.13;;;27.65;47.78
37066;BME280;22981;43.080;25.550;2022-08-19T07:29:32;99203.09;;;27.80;47.80
37066;BME280;22981;43.080;25.550;2022-08-19T07:32:01;99199.44;;;27.94;47.28
37066;BME280;22981;43.080;25.550;2022-08-19T07:34:30;99197.61;;;28.04;46.60
37066;BME280;22981;43.080;25.550;2022-08-19T07:36:59;99208.63;;;28.16;46.48
37066;BME280;22981;43.080;25.550;2022-08-19T07:39:29;99207.14;;;28.25;46.30
37066;BME280;22981;43.080;25.550;2022-08-19T07:41:59;99207.61;;;28.33;46.20
37066;BME280;22981;43.080;25.550;2022-08-19T07:44:27;99219.23;;;28.45;46.11
37066;BME280;22981;43.080;25.550;2022-08-19T07:46:56;99211.88;;;28.55;45.56
37066;BME280;22981;43.080;25.550;2022-08-19T07:49:27;99207.06;;;28.58;45.28
37066;BME280;22981;43.080;25.550;2022-08-19T07:51:57;99202.69;;;28.63;45.25
37066;BME280;22981;43.080;25.550;2022-08-19T07:54:29;99202.45;;;28.75;44.82
37066;BME280;22981;43.080;25.550;2022-08-19T07:56:57;99206.45;;;28.83;44.82
37066;BME280;22981;43.080;25.550;2022-08-19T07:59:25;99201.61;;;28.92;44.23
37066;BME280;22981;43.080;25.550;2022-08-19T08:01:52;99204.47;;;29.02;44.09
37066;BME280;22981;43.080;25.550;2022-08-19T08:04:21;99201.68;;;29.14;43.99
37066;BME280;22981;43.080;25.550;2022-08-19T08:07:07;99206.36;;;29.20;43.52
37066;BME280;22981;43.080;25.550;2022-08-19T08:09:53;99195.66;;;29.31;43.55
37066;BME280;22981;43.080;25.550;2022-08-19T08:12:23;99188.88;;;29.50;43.36
37066;BME280;22981;43.080;25.550;2022-08-19T08:14:55;99189.80;;;29.60;42.86
37066;BME280;22981;43.080;25.550;2022-08-19T08:17:26;99186.20;;;29.66;42.55
37066;BME280;22981;43.080;25.550;2022-08-19T08:19:54;99181.19;;;29.78;41.96
37066;BME280;22981;43.080;25.550;2022-08-19T08:22:23;99180.24;;;29.80;41.86
37066;BME280;22981;43.080;25.550;2022-08-19T08:25:15;99179.86;;;29.87;42.01
37066;BME280;22981;43.080;25.550;2022-08-19T08:27:44;99175.51;;;30.02;41.64
37066;BME280;22981;43.080;25.550;2022-08-19T08:30:19;99179.66;;;30.18;41.41
37066;BME280;22981;43.080;25.550;2022-08-19T08:32:43;99184.00;;;30.35;41.20
37066;BME280;22981;43.080;25.550;2022-08-19T08:35:14;99169.72;;;30.49;40.57
37066;BME280;22981;43.080;25.550;2022-08-19T08:37:41;99171.85;;;30.55;40.39
37066;BME280;22981;43.080;25.550;2022-08-19T08:40:30;99167.72;;;30.65;40.47
37066;BME280;22981;43.080;25.550;2022-08-19T08:46:00;99168.37;;;31.03;39.75
37066;BME280;22981;43.080;25.550;2022-08-19T08:51:11;99169.75;;;31.42;38.73
37066;BME280;22981;43.080;25.550;2022-08-19T08:53:37;99161.85;;;31.63;37.95
37066;BME280;22981;43.080;25.550;2022-08-19T08:56:07;99165.61;;;31.84;37.11
37066;BME280;22981;43.080;25.550;2022-08-19T08:58:46;99168.88;;;32.03;36.45
37066;BME280;22981;43.080;25.550;2022-08-19T09:01:13;99160.83;;;32.18;36.01
37066;BME280;22981;43.080;25.550;2022-08-19T09:03:43;99152.58;;;32.21;35.47
37066;BME280;22981;43.080;25.550;2022-08-19T09:06:25;99156.73;;;32.21;35.52
37066;BME280;22981;43.080;25.550;2022-08-19T09:09:03;99153.91;;;32.31;35.57
37066;BME280;22981;43.080;25.550;2022-08-19T09:14:48;99152.31;;;32.70;34.75
37066;BME280;22981;43.080;25.550;2022-08-19T09:17:16;99144.56;;;32.82;34.51
37066;BME280;22981;43.080;25.550;2022-08-19T09:19:56;99145.34;;;32.96;34.37
37066;BME280;22981;43.080;25.550;2022-08-19T09:22:23;99145.05;;;33.05;34.06
37066;BME280;22981;43.080;25.550;2022-08-19T09:24:54;99146.39;;;33.01;33.91
37066;BME280;22981;43.080;25.550;2022-08-19T09:27:24;99157.08;;;32.99;33.80
37066;BME280;22981;43.080;25.550;2022-08-19T09:29:52;99154.02;;;33.08;33.92
37066;BME280;22981;43.080;25.550;2022-08-19T09:32:21;99152.53;;;33.18;33.89
37066;BME280;22981;43.080;25.550;2022-08-19T09:34:49;99146.19;;;33.17;33.79
37066;BME280;22981;43.080;25.550;2022-08-19T09:37:19;99139.94;;;33.24;33.79
37066;BME280;22981;43.080;25.550;2022-08-19T09:39:46;99138.27;;;33.36;33.90
37066;BME280;22981;43.080;25.550;2022-08-19T09:42:14;99139.64;;;33.49;33.79
37066;BME280;22981;43.080;25.550;2022-08-19T09:44:42;99142.34;;;33.62;33.52
37066;BME280;22981;43.080;25.550;2022-08-19T09:47:10;99135.17;;;33.61;33.18
37066;BME280;22981;43.080;25.550;2022-08-19T09:49:39;99146.28;;;33.61;32.78
37066;BME280;22981;43.080;25.550;2022-08-19T09:52:09;99140.92;;;33.59;32.76
37066;BME280;22981;43.080;25.550;2022-08-19T09:54:38;99132.08;;;33.67;32.77
37066;BME280;22981;43.080;25.550;2022-08-19T09:57:05;99137.51;;;33.76;32.66
37066;BME280;22981;43.080;25.550;2022-08-19T09:59:34;99145.84;;;33.76;32.48
37066;BME280;22981;43.080;25.550;2022-08-19T10:02:01;99137.31;;;33.75;32.47
37066;BME280;22981;43.080;25.550;2022-08-19T10:04:29;99127.99;;;33.77;32.39
37066;BME280;22981;43.080;25.550;2022-08-19T10:07:15;99133.61;;;33.84;32.18
37066;BME280;22981;43.080;25.550;2022-08-19T10:09:43;99135.47;;;33.94;32.04
37066;BME280;22981;43.080;25.550;2022-08-19T10:12:10;99129.45;;;34.05;32.13
37066;BME280;22981;43.080;25.550;2022-08-19T10:14:38;99120.38;;;34.15;31.88
37066;BME280;22981;43.080;25.550;2022-08-19T10:17:05;99132.55;;;34.24;31.88
37066;BME280;22981;43.080;25.550;2022-08-19T10:19:33;99131.41;;;34.32;31.73
37066;BME280;22981;43.080;25.550;2022-08-19T10:22:06;99123.33;;;34.40;31.83
37066;BME280;22981;43.080;25.550;2022-08-19T10:24:34;99122.14;;;34.41;31.93
37066;BME280;22981;43.080;25.550;2022-08-19T10:27:02;99123.22;;;34.26;31.96
37066;BME280;22981;43.080;25.550;2022-08-19T10:29:32;99118.37;;;34.12;32.12
37066;BME280;22981;43.080;25.550;2022-08-19T10:32:03;99116.53;;;33.82;32.48
37066;BME280;22981;43.080;25.550;2022-08-19T10:34:31;99114.27;;;33.51;32.98
37066;BME280;22981;43.080;25.550;2022-08-19T10:36:59;99111.58;;;33.58;33.02
37066;BME280;22981;43.080;25.550;2022-08-19T10:39:28;99111.89;;;33.73;32.90
37066;BME280;22981;43.080;25.550;2022-08-19T10:41:56;99115.13;;;33.82;32.37
37066;BME280;22981;43.080;25.550;2022-08-19T10:44:24;99114.98;;;33.64;32.13
37066;BME280;22981;43.080;25.550;2022-08-19T10:46:52;99112.93;;;33.37;32.17
37066;BME280;22981;43.080;25.550;2022-08-19T10:49:19;99114.58;;;33.25;32.30
37066;BME280;22981;43.080;25.550;2022-08-19T10:51:47;99116.73;;;33.43;32.14
37066;BME280;22981;43.080;25.550;2022-08-19T10:54:33;99104.08;;;33.62;31.87
37066;BME280;22981;43.080;25.550;2022-08-19T10:57:18;99104.86;;;33.86;31.87
37066;BME280;22981;43.080;25.550;2022-08-19T10:59:46;99101.28;;;34.06;31.49
37066;BME280;22981;43.080;25.550;2022-08-19T11:02:14;99094.62;;;34.18;31.54
37066;BME280;22981;43.080;25.550;2022-08-19T11:04:41;99098.47;;;34.34;31.29
37066;BME280;22981;43.080;25.550;2022-08-19T11:07:09;99098.14;;;34.46;30.99
37066;BME280;22981;43.080;25.550;2022-08-19T11:09:42;99086.70;;;34.55;30.63
37066;BME280;22981;43.080;25.550;2022-08-19T11:12:10;99092.50;;;34.63;30.70
37066;BME280;22981;43.080;25.550;2022-08-19T11:14:39;99090.14;;;34.65;30.69
37066;BME280;22981;43.080;25.550;2022-08-19T11:17:06;99098.12;;;34.39;31.09
37066;BME280;22981;43.080;25.550;2022-08-19T11:19:34;99097.25;;;34.00;31.49
37066;BME280;22981;43.080;25.550;2022-08-19T11:22:02;99095.39;;;33.67;31.89
37066;BME280;22981;43.080;25.550;2022-08-19T11:24:30;99097.62;;;33.34;32.30
37066;BME280;22981;43.080;25.550;2022-08-19T11:27:01;99090.57;;;33.23;32.46
37066;BME280;22981;43.080;25.550;2022-08-19T11:29:31;99085.69;;;33.47;32.28
37066;BME280;22981;43.080;25.550;2022-08-19T11:32:06;99083.93;;;33.72;31.75
37066;BME280;22981;43.080;25.550;2022-08-19T11:34:33;99081.88;;;33.89;31.50
37066;BME280;22981;43.080;25.550;2022-08-19T11:37:02;99080.84;;;34.08;31.38
37066;BME280;22981;43.080;25.550;2022-08-19T11:39:32;99086.28;;;34.18;31.19
37066;BME280;22981;43.080;25.550;2022-08-19T11:42:01;99080.02;;;34.04;31.20
37066;BME280;22981;43.080;25.550;2022-08-19T11:44:29;99081.78;;;33.75;31.40
37066;BME280;22981;43.080;25.550;2022-08-19T11:46:57;99075.59;;;33.48;31.68
37066;BME280;22981;43.080;25.550;2022-08-19T11:49:26;99079.04;;;33.38;31.74
37066;BME280;22981;43.080;25.550;2022-08-19T11:51:53;99071.14;;;33.60;31.77
37066;BME280;22981;43.080;25.550;2022-08-19T11:54:21;99067.94;;;33.82;31.27
37066;BME280;22981;43.080;25.550;2022-08-19T11:56:49;99067.72;;;34.02;30.93
37066;BME280;22981;43.080;25.550;2022-08-19T11:59:17;99054.73;;;34.20;30.47
37066;BME280;22981;43.080;25.550;2022-08-19T12:01:44;99054.00;;;34.34;30.25
37066;BME280;22981;43.080;25.550;2022-08-19T12:04:13;99061.27;;;34.49;30.07
37066;BME280;22981;43.080;25.550;2022-08-19T12:06:41;99053.58;;;34.63;29.97
37066;BME280;22981;43.080;25.550;2022-08-19T12:09:10;99048.28;;;34.78;29.86
37066;BME280;22981;43.080;25.550;2022-08-19T12:11:38;99041.95;;;34.92;29.68
37066;BME280;22981;43.080;25.550;2022-08-19T12:14:09;99052.08;;;34.94;29.69
37066;BME280;22981;43.080;25.550;2022-08-19T12:16:36;99048.97;;;34.99;29.52
37066;BME280;22981;43.080;25.550;2022-08-19T12:19:05;99048.77;;;35.05;29.54
37066;BME280;22981;43.080;25.550;2022-08-19T12:21:35;99043.83;;;35.12;29.37
37066;BME280;22981;43.080;25.550;2022-08-19T12:24:05;99045.63;;;35.21;29.08
37066;BME280;22981;43.080;25.550;2022-08-19T12:26:33;99034.08;;;35.19;28.94
37066;BME280;22981;43.080;25.550;2022-08-19T12:29:00;99033.90;;;35.22;28.83
37066;BME280;22981;43.080;25.550;2022-08-19T12:31:28;99035.49;;;35.26;28.60
37066;BME280;22981;43.080;25.550;2022-08-19T12:33:56;99023.55;;;35.19;28.50
37066;BME280;22981;43.080;25.550;2022-08-19T12:36:24;99025.54;;;35.18;28.87
37066;BME280;22981;43.080;25.550;2022-08-19T12:38:52;99021.37;;;35.18;28.76
37066;BME280;22981;43.080;25.550;2022-08-19T12:41:21;99019.50;;;34.95;29.09
37066;BME280;22981;43.080;25.550;2022-08-19T12:43:49;99023.24;;;34.75;29.52
37066;BME280;22981;43.080;25.550;2022-08-19T12:46:17;99029.11;;;34.48;29.65
37066;BME280;22981;43.080;25.550;2022-08-19T12:48:45;99029.16;;;34.24;29.97
37066;BME280;22981;43.080;25.550;2022-08-19T12:51:16;99032.73;;;34.25;30.08
37066;BME280;22981;43.080;25.550;2022-08-19T12:53:46;99025.87;;;34.39;30.11
37066;BME280;22981;43.080;25.550;2022-08-19T12:56:14;99016.22;;;34.53;29.71
37066;BME280;22981;43.080;25.550;2022-08-19T12:58:42;99022.20;;;34.62;29.57
37066;BME280;22981;43.080;25.550;2022-08-19T13:01:14;99020.04;;;34.66;29.60
37066;BME280;22981;43.080;25.550;2022-08-19T13:03:44;99017.68;;;34.75;29.54
37066;BME280;22981;43.080;25.550;2022-08-19T13:06:12;98983.90;;;34.66;29.34
37066;BME280;22981;43.080;25.550;2022-08-19T13:08:40;99012.76;;;34.92;28.90
37066;BME280;22981;43.080;25.550;2022-08-19T13:11:15;99013.74;;;34.94;28.51